createdAt,value
2023-04-12T00:00:03.974Z,1011.84
2023-04-12T00:05:03.565Z,1011.88
2023-04-12T00:10:05.610Z,1011.91
2023-04-12T00:15:03.753Z,1011.9
2023-04-12T00:20:04.433Z,1011.86
2023-04-12T00:25:03.597Z,1011.87
2023-04-12T00:30:05.137Z,1011.85
2023-04-12T00:35:03.192Z,1011.88
2023-04-12T00:40:04.131Z,1011.85
2023-04-12T00:45:03.154Z,1011.85
2023-04-12T00:50:04.431Z,1011.8
2023-04-12T00:55:03.149Z,1011.8
2023-04-12T01:00:04.206Z,1011.81
2023-04-12T01:05:03.114Z,1011.81
2023-04-12T01:10:04.019Z,1011.79
2023-04-12T01:15:03.194Z,1011.83
2023-04-12T01:20:04.728Z,1011.86
2023-04-12T01:25:03.180Z,1011.88
2023-04-12T01:30:04.150Z,1011.88
2023-04-12T01:35:03.179Z,1011.82
2023-04-12T01:40:05.167Z,1011.79
2023-04-12T01:45:03.180Z,1011.81
2023-04-12T01:50:04.027Z,1011.88
2023-04-12T01:55:03.208Z,1011.89
2023-04-12T02:00:04.125Z,1011.84
2023-04-12T02:05:03.131Z,1011.78
2023-04-12T02:10:04.125Z,1011.77
2023-04-12T02:15:03.120Z,1011.73
2023-04-12T02:20:04.071Z,1011.77
2023-04-12T02:25:03.155Z,1011.78
2023-04-12T02:30:04.118Z,1011.76
2023-04-12T02:35:03.129Z,1011.77
2023-04-12T02:40:04.185Z,1011.73
2023-04-12T02:45:03.142Z,1011.74
2023-04-12T02:50:04.152Z,1011.78
2023-04-12T02:55:03.133Z,1011.79
2023-04-12T03:00:04.233Z,1011.7
2023-04-12T03:05:03.031Z,1011.73
2023-04-12T03:10:04.172Z,1011.74
2023-04-12T03:15:03.122Z,1011.7
2023-04-12T03:20:04.391Z,1011.68
2023-04-12T03:25:03.097Z,1011.72
2023-04-12T03:30:04.031Z,1011.69
2023-04-12T03:35:03.119Z,1011.65
2023-04-12T03:40:04.074Z,1011.64
2023-04-12T03:45:03.218Z,1011.62
2023-04-12T03:55:03.056Z,1011.61
2023-04-12T04:00:04.136Z,1011.55
2023-04-12T04:05:04.145Z,1011.58
2023-04-12T04:10:04.116Z,1011.52
2023-04-12T04:15:07.092Z,1011.5
2023-04-12T04:20:04.157Z,1011.53
2023-04-12T04:25:03.402Z,1011.51
2023-04-12T04:30:04.187Z,1011.5
2023-04-12T04:35:03.107Z,1011.44
2023-04-12T04:40:04.146Z,1011.4
2023-04-12T04:45:03.022Z,1011.42
2023-04-12T04:50:04.080Z,1011.46
2023-04-12T04:55:04.852Z,1011.48
2023-04-12T05:00:05.253Z,1011.55
2023-04-12T05:05:03.085Z,1011.55
2023-04-12T05:10:04.010Z,1011.61
2023-04-12T05:20:04.038Z,1011.68
2023-04-12T05:25:03.152Z,1011.7
2023-04-12T05:30:04.114Z,1011.73
2023-04-12T05:35:03.245Z,1011.73
2023-04-12T05:40:04.092Z,1011.71
2023-04-12T05:45:03.047Z,1011.7
2023-04-12T05:50:05.780Z,1011.6
2023-04-12T05:55:03.021Z,1011.58
2023-04-12T06:00:04.082Z,1011.61
2023-04-12T06:05:03.517Z,1011.64
2023-04-12T06:10:04.210Z,1011.66
2023-04-12T06:15:05.075Z,1011.69
2023-04-12T06:20:03.186Z,1011.73
2023-04-12T06:25:02.996Z,1011.76
2023-04-12T06:30:03.011Z,1011.83
2023-04-12T06:35:03.040Z,1011.86
2023-04-12T06:40:02.947Z,1011.89
2023-04-12T06:45:03.078Z,1011.89
2023-04-12T06:50:03.098Z,1011.9
2023-04-12T06:55:02.888Z,1011.92
2023-04-12T07:00:03.044Z,1011.95
2023-04-12T07:05:02.882Z,1011.94
2023-04-12T07:10:03.078Z,1011.94
2023-04-12T07:15:02.979Z,1011.97
2023-04-12T07:20:03.152Z,1011.98
2023-04-12T07:25:02.979Z,1011.98
2023-04-12T07:30:02.981Z,1011.96
2023-04-12T07:35:02.933Z,1011.99
2023-04-12T07:40:03.231Z,1011.97
2023-04-12T07:45:02.935Z,1011.98
2023-04-12T07:50:03.076Z,1011.94
2023-04-12T07:55:02.983Z,1011.92
2023-04-12T08:00:03.009Z,1011.95
2023-04-12T08:05:03.025Z,1012.01
2023-04-12T08:10:03.088Z,1011.93
2023-04-12T08:15:02.966Z,1011.93
2023-04-12T08:20:02.961Z,1011.91
2023-04-12T08:25:02.863Z,1011.93
2023-04-12T08:30:03.024Z,1012.01
2023-04-12T08:35:02.959Z,1011.99
2023-04-12T08:40:03.080Z,1012.03
2023-04-12T08:45:03.042Z,1012.08
2023-04-12T08:50:03.075Z,1012.14
2023-04-12T08:55:03.030Z,1012.24
2023-04-12T09:00:03.051Z,1012.32
2023-04-12T09:05:02.932Z,1012.41
2023-04-12T09:10:03.051Z,1012.49
2023-04-12T09:15:02.983Z,1012.5
2023-04-12T09:20:03.133Z,1012.53
2023-04-12T09:25:02.948Z,1012.59
2023-04-12T09:30:03.046Z,1012.62
2023-04-12T09:35:02.970Z,1012.69
2023-04-12T09:40:03.100Z,1012.64
2023-04-12T09:45:03.154Z,1012.77
2023-04-12T09:50:03.032Z,1012.91
2023-04-12T09:55:02.936Z,1012.98
2023-04-12T10:00:03.058Z,1013.07
2023-04-12T10:05:03.260Z,1013.14
2023-04-12T10:10:03.079Z,1013.19
2023-04-12T10:15:04.023Z,1013.28
2023-04-12T10:20:03.050Z,1013.31
2023-04-12T10:25:02.958Z,1013.29
2023-04-12T10:30:03.161Z,1013.32
2023-04-12T10:35:02.951Z,1013.32
2023-04-12T10:40:03.043Z,1013.37
2023-04-12T10:45:03.013Z,1013.44
2023-04-12T10:50:03.024Z,1013.48
2023-04-12T10:55:02.927Z,1013.54
2023-04-12T11:00:03.085Z,1013.6
2023-04-12T11:05:03.154Z,1013.55
2023-04-12T11:10:03.041Z,1013.6
2023-04-12T11:15:03.143Z,1013.66
2023-04-12T11:20:03.114Z,1013.73
2023-04-12T11:25:03.189Z,1013.76
2023-04-12T11:30:03.134Z,1013.75
2023-04-12T11:35:03.007Z,1013.73
2023-04-12T11:40:03.014Z,1013.69
2023-04-12T11:45:06.800Z,1013.73
2023-04-12T11:50:03.097Z,1013.82
2023-04-12T11:55:02.977Z,1013.83
2023-04-12T12:00:02.963Z,1013.84
2023-04-12T12:05:03.317Z,1013.87
2023-04-12T12:10:03.020Z,1013.9
2023-04-12T12:15:02.970Z,1013.9
2023-04-12T12:20:03.174Z,1013.92
2023-04-12T12:25:03.013Z,1013.99
2023-04-12T12:30:02.976Z,1014.0
2023-04-12T12:35:03.152Z,1013.96
2023-04-12T12:40:03.117Z,1013.98
2023-04-12T12:45:02.997Z,1013.98
2023-04-12T12:50:03.106Z,1014.02
2023-04-12T12:55:02.982Z,1014.06
2023-04-12T13:00:03.020Z,1014.04
2023-04-12T13:05:03.225Z,1014.01
2023-04-12T13:10:03.044Z,1013.99
2023-04-12T13:15:17.865Z,1013.99
2023-04-12T13:20:04.041Z,1013.98
2023-04-12T13:25:03.027Z,1013.96
2023-04-12T13:30:03.072Z,1013.89
2023-04-12T13:35:02.987Z,1013.82
2023-04-12T13:40:03.151Z,1013.84
2023-04-12T13:45:02.951Z,1013.83
2023-04-12T13:50:03.187Z,1013.79
2023-04-12T13:55:03.002Z,1013.75
2023-04-12T14:00:03.145Z,1013.7
2023-04-12T14:05:03.160Z,1013.7
2023-04-12T14:10:04.142Z,1013.67
2023-04-12T14:15:03.097Z,1013.61
2023-04-12T14:20:03.198Z,1013.61
2023-04-12T14:25:02.966Z,1013.56
2023-04-12T14:30:03.110Z,1013.46
2023-04-12T14:35:02.967Z,1013.38
2023-04-12T14:40:03.194Z,1013.32
2023-04-12T14:45:08.216Z,1013.22
2023-04-12T14:50:03.086Z,1013.17
2023-04-12T14:55:04.091Z,1013.09
2023-04-12T15:00:04.196Z,1013.06
2023-04-12T15:05:03.138Z,1012.99
2023-04-12T15:10:03.063Z,1012.87
2023-04-12T15:15:04.676Z,1012.81
2023-04-12T15:20:03.063Z,1012.71
2023-04-12T15:25:03.110Z,1012.72
2023-04-12T15:30:08.018Z,1012.58
2023-04-12T15:35:04.530Z,1012.51
2023-04-12T15:40:02.994Z,1012.48
2023-04-12T15:45:03.041Z,1012.42
2023-04-12T15:50:03.227Z,1012.28
2023-04-12T15:55:03.004Z,1012.22
2023-04-12T16:00:03.154Z,1012.22
2023-04-12T16:05:03.268Z,1012.06
2023-04-12T16:10:03.081Z,1011.93
2023-04-12T16:15:02.959Z,1011.92
2023-04-12T16:20:03.143Z,1011.77
2023-04-12T16:25:03.032Z,1011.7
2023-04-12T16:30:03.110Z,1011.62
2023-04-12T16:35:02.963Z,1011.56
2023-04-12T16:40:03.121Z,1011.59
2023-04-12T16:45:02.975Z,1011.42
2023-04-12T16:50:03.068Z,1011.32
2023-04-12T16:55:03.000Z,1011.13
2023-04-12T17:00:03.028Z,1011.08
2023-04-12T17:05:02.928Z,1011.05
2023-04-12T17:10:03.173Z,1010.98
2023-04-12T17:15:02.947Z,1010.88
2023-04-12T17:20:03.113Z,1010.79
2023-04-12T17:25:02.939Z,1010.71
2023-04-12T17:30:03.101Z,1010.68
2023-04-12T17:35:02.924Z,1010.65
2023-04-12T17:40:03.102Z,1010.57
2023-04-12T17:45:03.088Z,1010.5
2023-04-12T17:50:03.005Z,1010.35
2023-04-12T17:55:02.970Z,1010.24
2023-04-12T18:00:03.040Z,1010.21
2023-04-12T18:05:02.962Z,1010.13
2023-04-12T18:10:03.013Z,1010.05
2023-04-12T18:15:04.044Z,1010.0
2023-04-12T18:20:03.361Z,1009.92
2023-04-12T18:25:03.037Z,1009.82
2023-04-12T18:30:03.059Z,1009.82
2023-04-12T18:35:03.007Z,1009.75
2023-04-12T18:40:03.061Z,1009.72
2023-04-12T18:45:02.998Z,1009.68
2023-04-12T18:50:03.155Z,1009.56
2023-04-12T18:55:02.997Z,1009.47
2023-04-12T19:00:03.104Z,1009.49
2023-04-12T19:05:02.944Z,1009.47
2023-04-12T19:10:03.076Z,1009.38
2023-04-12T19:15:02.990Z,1009.37
2023-04-12T19:20:03.166Z,1009.27
2023-04-12T19:25:02.950Z,1009.21
2023-04-12T19:30:03.308Z,1009.1
2023-04-12T19:35:03.002Z,1008.99
2023-04-12T19:40:03.114Z,1008.93
2023-04-12T19:45:03.072Z,1008.89
2023-04-12T19:50:03.015Z,1008.85
2023-04-12T19:55:03.076Z,1008.79
2023-04-12T20:00:03.136Z,1008.75
2023-04-12T20:05:02.970Z,1008.79
2023-04-12T20:10:03.007Z,1008.71
2023-04-12T20:15:02.948Z,1008.69
2023-04-12T20:20:03.000Z,1008.64
2023-04-12T20:25:02.986Z,1008.63
2023-04-12T20:30:03.047Z,1008.59
2023-04-12T20:35:02.957Z,1008.54
2023-04-12T20:40:03.138Z,1008.56
2023-04-12T20:45:03.030Z,1008.6
2023-04-12T20:50:03.096Z,1008.7
2023-04-12T20:55:03.104Z,1008.75
2023-04-12T21:00:03.077Z,1008.71
2023-04-12T21:05:03.136Z,1008.63
2023-04-12T21:10:03.171Z,1008.66
2023-04-12T21:15:02.997Z,1008.66
2023-04-12T21:20:03.020Z,1008.71
2023-04-12T21:25:02.975Z,1008.85
2023-04-12T21:30:03.103Z,1008.9
2023-04-12T21:35:03.029Z,1008.96
2023-04-12T21:40:02.850Z,1009.0
2023-04-12T21:45:03.001Z,1009.09
2023-04-12T21:50:03.049Z,1009.14
2023-04-12T21:55:02.997Z,1009.23
2023-04-12T22:00:03.045Z,1009.26
2023-04-12T22:05:03.039Z,1009.4
2023-04-12T22:10:03.133Z,1009.46
2023-04-12T22:15:03.068Z,1009.49
2023-04-12T22:20:03.113Z,1009.55
2023-04-12T22:25:03.048Z,1009.67
2023-04-12T22:30:03.082Z,1009.8
2023-04-12T22:35:07.966Z,1009.87
2023-04-12T22:40:03.233Z,1010.0
2023-04-12T22:45:02.978Z,1010.08
2023-04-12T22:50:03.098Z,1010.14
2023-04-12T22:55:03.020Z,1010.2
2023-04-12T23:00:03.107Z,1010.34
2023-04-12T23:05:03.071Z,1010.43
2023-04-12T23:10:03.151Z,1010.48
2023-04-12T23:15:03.023Z,1010.45
2023-04-12T23:20:03.085Z,1010.45
2023-04-12T23:25:02.978Z,1010.59
2023-04-12T23:30:03.228Z,1010.63
2023-04-12T23:35:02.941Z,1010.61
2023-04-12T23:40:03.121Z,1010.69
2023-04-12T23:45:03.076Z,1010.76
2023-04-12T23:50:03.218Z,1010.7
2023-04-12T23:55:03.058Z,1010.8
